sensor_id;sensor_type;location;lat;lon;timestamp;pressure;altitude;pressure_sealevel;temperature;humidity
29733;BME280;16643;43.158;25.302;2023-04-09T00:01:58;98389.84;;;6.73;98.67
29733;BME280;16643;43.158;25.302;2023-04-09T00:04:24;98388.16;;;6.67;99.18
29733;BME280;16643;43.158;25.302;2023-04-09T00:06:50;98393.31;;;6.67;100.00
29733;BME280;16643;43.158;25.302;2023-04-09T00:09:15;98355.78;;;6.36;100.00
29733;BME280;16643;43.158;25.302;2023-04-09T00:11:41;98400.47;;;6.42;100.00
29733;BME280;16643;43.158;25.302;2023-04-09T00:14:07;98403.16;;;6.29;100.00
29733;BME280;16643;43.158;25.302;2023-04-09T00:16:32;98389.53;;;6.11;100.00
29733;BME280;16643;43.158;25.302;2023-04-09T00:18:58;98381.84;;;6.07;100.00
29733;BME280;16643;43.158;25.302;2023-04-09T00:21:24;98409.28;;;6.14;100.00
29733;BME280;16643;43.158;25.302;2023-04-09T00:23:51;98387.00;;;6.08;100.00
29733;BME280;16643;43.158;25.302;2023-04-09T00:26:17;98396.41;;;6.14;100.00
29733;BME280;16643;43.158;25.302;2023-04-09T00:28:42;98394.75;;;6.07;100.00
29733;BME280;16643;43.158;25.302;2023-04-09T00:31:08;98416.16;;;6.16;100.00
29733;BME280;16643;43.158;25.302;2023-04-09T00:33:34;98389.50;;;6.13;100.00
29733;BME280;16643;43.158;25.302;2023-04-09T00:36:00;98404.91;;;6.24;100.00
29733;BME280;16643;43.158;25.302;2023-04-09T00:38:26;98413.50;;;6.27;100.00
29733;BME280;16643;43.158;25.302;2023-04-09T00:40:52;98416.94;;;6.25;100.00
29733;BME280;16643;43.158;25.302;2023-04-09T00:43:17;98430.78;;;6.19;100.00
29733;BME280;16643;43.158;25.302;2023-04-09T00:45:44;98383.56;;;6.06;100.00
29733;BME280;16643;43.158;25.302;2023-04-09T00:48:11;98422.16;;;6.20;100.00
29733;BME280;16643;43.158;25.302;2023-04-09T00:50:37;98362.22;;;5.81;100.00
29733;BME280;16643;43.158;25.302;2023-04-09T00:53:04;98410.25;;;6.02;100.00
29733;BME280;16643;43.158;25.302;2023-04-09T00:55:30;98414.56;;;5.99;100.00
29733;BME280;16643;43.158;25.302;2023-04-09T00:57:56;98402.69;;;5.70;100.00
29733;BME280;16643;43.158;25.302;2023-04-09T01:00:21;98401.06;;;5.54;100.00
29733;BME280;16643;43.158;25.302;2023-04-09T01:02:48;98416.47;;;5.65;100.00
29733;BME280;16643;43.158;25.302;2023-04-09T01:05:15;98409.56;;;5.68;100.00
29733;BME280;16643;43.158;25.302;2023-04-09T01:08:00;98414.72;;;5.71;100.00
29733;BME280;16643;43.158;25.302;2023-04-09T01:10:46;98391.53;;;5.70;100.00
29733;BME280;16643;43.158;25.302;2023-04-09T01:13:19;98406.91;;;5.87;100.00
29733;BME280;16643;43.158;25.302;2023-04-09T01:15:59;98404.31;;;5.85;100.00
29733;BME280;16643;43.158;25.302;2023-04-09T01:18:58;98404.34;;;5.80;100.00
29733;BME280;16643;43.158;25.302;2023-04-09T01:21:29;98413.00;;;5.75;100.00
29733;BME280;16643;43.158;25.302;2023-04-09T01:24:35;98403.63;;;5.62;100.00
29733;BME280;16643;43.158;25.302;2023-04-09T01:27:02;98403.63;;;5.56;100.00
29733;BME280;16643;43.158;25.302;2023-04-09T01:29:32;98402.81;;;5.46;100.00
29733;BME280;16643;43.158;25.302;2023-04-09T01:32:00;98391.66;;;5.47;100.00
29733;BME280;16643;43.158;25.302;2023-04-09T01:34:28;98397.66;;;5.44;100.00
29733;BME280;16643;43.158;25.302;2023-04-09T01:36:58;98395.09;;;5.43;100.00
29733;BME280;16643;43.158;25.302;2023-04-09T01:39:25;98405.41;;;5.46;100.00
29733;BME280;16643;43.158;25.302;2023-04-09T01:41:52;98385.69;;;5.39;100.00
29733;BME280;16643;43.158;25.302;2023-04-09T01:44:18;98391.72;;;5.32;100.00
29733;BME280;16643;43.158;25.302;2023-04-09T01:46:49;98404.63;;;5.30;100.00
29733;BME280;16643;43.158;25.302;2023-04-09T01:49:16;98395.22;;;5.20;100.00
29733;BME280;16643;43.158;25.302;2023-04-09T01:51:42;98395.25;;;5.14;100.00
29733;BME280;16643;43.158;25.302;2023-04-09T01:54:08;98398.63;;;5.21;100.00
29733;BME280;16643;43.158;25.302;2023-04-09T01:56:44;98408.09;;;5.26;100.00
29733;BME280;16643;43.158;25.302;2023-04-09T01:59:10;98390.91;;;5.27;100.00
29733;BME280;16643;43.158;25.302;2023-04-09T02:01:59;98412.38;;;5.30;100.00
29733;BME280;16643;43.158;25.302;2023-04-09T02:04:39;98404.66;;;5.26;100.00
29733;BME280;16643;43.158;25.302;2023-04-09T02:09:44;98406.34;;;5.28;100.00
29733;BME280;16643;43.158;25.302;2023-04-09T02:12:16;98402.06;;;5.30;100.00
29733;BME280;16643;43.158;25.302;2023-04-09T02:14:45;98396.97;;;5.18;100.00
29733;BME280;16643;43.158;25.302;2023-04-09T02:17:11;98414.13;;;5.08;100.00
29733;BME280;16643;43.158;25.302;2023-04-09T02:19:41;98372.16;;;4.96;100.00
29733;BME280;16643;43.158;25.302;2023-04-09T02:22:09;98395.34;;;4.96;100.00
29733;BME280;16643;43.158;25.302;2023-04-09T02:24:35;98385.03;;;4.93;100.00
29733;BME280;16643;43.158;25.302;2023-04-09T02:27:01;98399.63;;;4.95;100.00
29733;BME280;16643;43.158;25.302;2023-04-09T02:29:27;98381.63;;;4.80;100.00
29733;BME280;16643;43.158;25.302;2023-04-09T02:31:52;98392.78;;;4.85;100.00
29733;BME280;16643;43.158;25.302;2023-04-09T02:34:19;98389.31;;;4.88;100.00
29733;BME280;16643;43.158;25.302;2023-04-09T02:36:45;98388.47;;;4.95;100.00
29733;BME280;16643;43.158;25.302;2023-04-09T02:39:10;98403.88;;;5.04;100.00
29733;BME280;16643;43.158;25.302;2023-04-09T02:41:36;98387.59;;;4.94;100.00
29733;BME280;16643;43.158;25.302;2023-04-09T02:44:02;98413.28;;;5.08;100.00
29733;BME280;16643;43.158;25.302;2023-04-09T02:46:28;98416.72;;;5.10;100.00
29733;BME280;16643;43.158;25.302;2023-04-09T02:48:53;98399.59;;;5.03;100.00
29733;BME280;16643;43.158;25.302;2023-04-09T02:51:19;98409.88;;;5.07;100.00
29733;BME280;16643;43.158;25.302;2023-04-09T02:53:45;98413.34;;;4.88;100.00
29733;BME280;16643;43.158;25.302;2023-04-09T02:56:11;98414.28;;;4.72;100.00
29733;BME280;16643;43.158;25.302;2023-04-09T02:58:37;98403.13;;;4.68;100.00
29733;BME280;16643;43.158;25.302;2023-04-09T03:01:02;98416.81;;;4.78;100.00
29733;BME280;16643;43.158;25.302;2023-04-09T03:03:28;98391.94;;;4.75;100.00
29733;BME280;16643;43.158;25.302;2023-04-09T03:05:55;98409.91;;;4.88;100.00
29733;BME280;16643;43.158;25.302;2023-04-09T03:08:20;98411.63;;;4.95;100.00
29733;BME280;16643;43.158;25.302;2023-04-09T03:10:46;98408.16;;;4.97;100.00
29733;BME280;16643;43.158;25.302;2023-04-09T03:13:12;98431.31;;;5.08;100.00
29733;BME280;16643;43.158;25.302;2023-04-09T03:15:37;98415.06;;;4.91;100.00
29733;BME280;16643;43.158;25.302;2023-04-09T03:18:03;98397.94;;;4.78;100.00
29733;BME280;16643;43.158;25.302;2023-04-09T03:20:28;98438.25;;;4.86;100.00
29733;BME280;16643;43.158;25.302;2023-04-09T03:22:54;98414.25;;;4.80;100.00
29733;BME280;16643;43.158;25.302;2023-04-09T03:25:20;98409.09;;;4.77;100.00
29733;BME280;16643;43.158;25.302;2023-04-09T03:27:45;98427.97;;;4.80;100.00
29733;BME280;16643;43.158;25.302;2023-04-09T03:30:11;98438.25;;;4.89;100.00
29733;BME280;16643;43.158;25.302;2023-04-09T03:32:37;98415.97;;;4.82;100.00
29733;BME280;16643;43.158;25.302;2023-04-09T03:35:02;98427.94;;;4.95;100.00
29733;BME280;16643;43.158;25.302;2023-04-09T03:37:28;98433.13;;;4.85;100.00
29733;BME280;16643;43.158;25.302;2023-04-09T03:39:54;98422.00;;;4.67;100.00
29733;BME280;16643;43.158;25.302;2023-04-09T03:42:19;98434.00;;;4.67;100.00
29733;BME280;16643;43.158;25.302;2023-04-09T03:44:45;98441.72;;;4.78;100.00
29733;BME280;16643;43.158;25.302;2023-04-09T03:47:11;98441.75;;;4.62;100.00
29733;BME280;16643;43.158;25.302;2023-04-09T03:49:36;98427.13;;;4.64;100.00
29733;BME280;16643;43.158;25.302;2023-04-09T03:52:02;98448.56;;;4.79;100.00
29733;BME280;16643;43.158;25.302;2023-04-09T03:54:28;98416.84;;;4.70;100.00
29733;BME280;16643;43.158;25.302;2023-04-09T03:56:54;98413.41;;;4.73;100.00
29733;BME280;16643;43.158;25.302;2023-04-09T03:59:21;98416.00;;;4.73;100.00
29733;BME280;16643;43.158;25.302;2023-04-09T04:01:46;98428.84;;;4.78;100.00
29733;BME280;16643;43.158;25.302;2023-04-09T04:04:12;98439.13;;;4.84;100.00
29733;BME280;16643;43.158;25.302;2023-04-09T04:06:38;98436.53;;;4.87;100.00
29733;BME280;16643;43.158;25.302;2023-04-09T04:09:04;98461.41;;;4.88;100.00
29733;BME280;16643;43.158;25.302;2023-04-09T04:11:29;98448.53;;;4.98;100.00
29733;BME280;16643;43.158;25.302;2023-04-09T04:13:55;98427.94;;;4.95;100.00
29733;BME280;16643;43.158;25.302;2023-04-09T04:16:21;98436.50;;;5.03;100.00
29733;BME280;16643;43.158;25.302;2023-04-09T04:18:46;98442.50;;;4.99;100.00
29733;BME280;16643;43.158;25.302;2023-04-09T04:21:13;98432.25;;;4.93;100.00
29733;BME280;16643;43.158;25.302;2023-04-09T04:23:39;98439.94;;;5.04;100.00
29733;BME280;16643;43.158;25.302;2023-04-09T04:26:08;98439.91;;;5.10;100.00
29733;BME280;16643;43.158;25.302;2023-04-09T04:28:37;98432.16;;;5.19;100.00
29733;BME280;16643;43.158;25.302;2023-04-09T04:31:07;98449.34;;;5.16;100.00
29733;BME280;16643;43.158;25.302;2023-04-09T04:33:34;98460.50;;;5.15;100.00
29733;BME280;16643;43.158;25.302;2023-04-09T04:36:07;98451.06;;;5.15;100.00
29733;BME280;16643;43.158;25.302;2023-04-09T04:38:33;98446.72;;;5.23;100.00
29733;BME280;16643;43.158;25.302;2023-04-09T04:41:00;98450.97;;;5.35;100.00
29733;BME280;16643;43.158;25.302;2023-04-09T04:43:25;98459.53;;;5.47;100.00
29733;BME280;16643;43.158;25.302;2023-04-09T04:45:51;98462.03;;;5.61;100.00
29733;BME280;16643;43.158;25.302;2023-04-09T04:48:17;98446.53;;;5.66;100.00
29733;BME280;16643;43.158;25.302;2023-04-09T04:50:42;98465.41;;;5.75;100.00
29733;BME280;16643;43.158;25.302;2023-04-09T04:53:08;98468.81;;;5.87;100.00
29733;BME280;16643;43.158;25.302;2023-04-09T04:55:37;98456.75;;;5.95;100.00
29733;BME280;16643;43.158;25.302;2023-04-09T04:58:04;98467.06;;;5.96;100.00
29733;BME280;16643;43.158;25.302;2023-04-09T05:00:30;98464.41;;;6.01;100.00
29733;BME280;16643;43.158;25.302;2023-04-09T05:02:56;98447.22;;;6.03;100.00
29733;BME280;16643;43.158;25.302;2023-04-09T05:05:21;98450.66;;;6.05;100.00
29733;BME280;16643;43.158;25.302;2023-04-09T05:07:47;98460.91;;;6.11;100.00
29733;BME280;16643;43.158;25.302;2023-04-09T05:10:13;98453.25;;;6.00;100.00
29733;BME280;16643;43.158;25.302;2023-04-09T05:12:38;98458.38;;;6.09;100.00
29733;BME280;16643;43.158;25.302;2023-04-09T05:15:04;98473.84;;;6.09;100.00
29733;BME280;16643;43.158;25.302;2023-04-09T05:17:31;98472.09;;;6.11;100.00
29733;BME280;16643;43.158;25.302;2023-04-09T05:19:56;98462.69;;;6.06;100.00
29733;BME280;16643;43.158;25.302;2023-04-09T05:22:22;98458.28;;;6.20;100.00
29733;BME280;16643;43.158;25.302;2023-04-09T05:24:48;98471.03;;;6.41;100.00
29733;BME280;16643;43.158;25.302;2023-04-09T05:27:14;98462.44;;;6.42;100.00
29733;BME280;16643;43.158;25.302;2023-04-09T05:29:39;98461.47;;;6.52;100.00
29733;BME280;16643;43.158;25.302;2023-04-09T05:32:05;98484.56;;;6.69;100.00
29733;BME280;16643;43.158;25.302;2023-04-09T05:34:34;98467.25;;;6.77;100.00
29733;BME280;16643;43.158;25.302;2023-04-09T05:37:01;98472.31;;;6.89;100.00
29733;BME280;16643;43.158;25.302;2023-04-09T05:39:27;98464.53;;;6.96;100.00
29733;BME280;16643;43.158;25.302;2023-04-09T05:41:52;98466.09;;;7.09;100.00
29733;BME280;16643;43.158;25.302;2023-04-09T05:44:18;98476.38;;;7.13;100.00
29733;BME280;16643;43.158;25.302;2023-04-09T05:46:43;98458.41;;;7.03;100.00
29733;BME280;16643;43.158;25.302;2023-04-09T05:49:09;98470.22;;;7.26;100.00
29733;BME280;16643;43.158;25.302;2023-04-09T05:51:35;98470.06;;;7.40;100.00
29733;BME280;16643;43.158;25.302;2023-04-09T05:54:01;98474.09;;;7.61;100.00
29733;BME280;16643;43.158;25.302;2023-04-09T05:56:27;98480.84;;;7.74;100.00
29733;BME280;16643;43.158;25.302;2023-04-09T05:58:53;98472.28;;;7.69;100.00
29733;BME280;16643;43.158;25.302;2023-04-09T06:01:18;98484.13;;;7.87;100.00
29733;BME280;16643;43.158;25.302;2023-04-09T06:03:44;98474.50;;;7.96;100.00
29733;BME280;16643;43.158;25.302;2023-04-09T06:06:10;98459.75;;;8.01;100.00
29733;BME280;16643;43.158;25.302;2023-04-09T06:08:35;98456.09;;;8.16;100.00
29733;BME280;16643;43.158;25.302;2023-04-09T06:11:01;98468.84;;;8.33;100.00
29733;BME280;16643;43.158;25.302;2023-04-09T06:13:27;98479.88;;;8.46;100.00
29733;BME280;16643;43.158;25.302;2023-04-09T06:15:53;98465.06;;;8.52;100.00
29733;BME280;16643;43.158;25.302;2023-04-09T06:18:19;98464.94;;;8.60;100.00
29733;BME280;16643;43.158;25.302;2023-04-09T06:20:45;98479.41;;;8.73;100.00
29733;BME280;16643;43.158;25.302;2023-04-09T06:23:10;98469.88;;;8.75;100.00
29733;BME280;16643;43.158;25.302;2023-04-09T06:25:36;98470.16;;;9.06;100.00
29733;BME280;16643;43.158;25.302;2023-04-09T06:28:01;98460.38;;;9.22;100.00
29733;BME280;16643;43.158;25.302;2023-04-09T06:30:28;98476.97;;;9.58;100.00
29733;BME280;16643;43.158;25.302;2023-04-09T06:32:53;98481.94;;;9.68;100.00
29733;BME280;16643;43.158;25.302;2023-04-09T06:35:19;98485.84;;;9.88;100.00
29733;BME280;16643;43.158;25.302;2023-04-09T06:37:46;98463.78;;;9.67;100.00
29733;BME280;16643;43.158;25.302;2023-04-09T06:40:12;98465.50;;;9.68;100.00
29733;BME280;16643;43.158;25.302;2023-04-09T06:42:38;98469.94;;;9.61;100.00
29733;BME280;16643;43.158;25.302;2023-04-09T06:45:04;98469.63;;;9.78;100.00
29733;BME280;16643;43.158;25.302;2023-04-09T06:47:33;98480.16;;;10.10;100.00
29733;BME280;16643;43.158;25.302;2023-04-09T06:50:00;98473.66;;;10.31;100.00
29733;BME280;16643;43.158;25.302;2023-04-09T06:52:26;98477.69;;;10.43;100.00
29733;BME280;16643;43.158;25.302;2023-04-09T06:54:51;98465.28;;;10.55;100.00
29733;BME280;16643;43.158;25.302;2023-04-09T06:57:17;98468.97;;;10.81;100.00
29733;BME280;16643;43.158;25.302;2023-04-09T06:59:42;98482.38;;;10.98;100.00
29733;BME280;16643;43.158;25.302;2023-04-09T07:02:08;98494.97;;;10.81;100.00
29733;BME280;16643;43.158;25.302;2023-04-09T07:04:34;98482.31;;;11.01;100.00
29733;BME280;16643;43.158;25.302;2023-04-09T07:07:00;98481.50;;;10.99;100.00
29733;BME280;16643;43.158;25.302;2023-04-09T07:09:26;98489.63;;;11.19;100.00
29733;BME280;16643;43.158;25.302;2023-04-09T07:11:51;98483.84;;;11.41;97.00
29733;BME280;16643;43.158;25.302;2023-04-09T07:14:17;98473.22;;;11.50;97.03
29733;BME280;16643;43.158;25.302;2023-04-09T07:16:42;98481.56;;;11.61;96.10
29733;BME280;16643;43.158;25.302;2023-04-09T07:19:11;98495.38;;;11.63;94.86
29733;BME280;16643;43.158;25.302;2023-04-09T07:21:36;98494.75;;;11.86;94.00
29733;BME280;16643;43.158;25.302;2023-04-09T07:24:02;98485.63;;;11.71;95.76
29733;BME280;16643;43.158;25.302;2023-04-09T07:26:29;98485.28;;;11.83;96.19
29733;BME280;16643;43.158;25.302;2023-04-09T07:28:54;98487.38;;;12.00;95.08
29733;BME280;16643;43.158;25.302;2023-04-09T07:31:20;98499.19;;;12.12;88.80
29733;BME280;16643;43.158;25.302;2023-04-09T07:33:46;98492.19;;;12.14;92.89
29733;BME280;16643;43.158;25.302;2023-04-09T07:36:12;98490.50;;;12.41;89.53
29733;BME280;16643;43.158;25.302;2023-04-09T07:38:37;98483.94;;;12.55;90.10
29733;BME280;16643;43.158;25.302;2023-04-09T07:41:03;98493.47;;;12.83;86.86
29733;BME280;16643;43.158;25.302;2023-04-09T07:43:30;98500.81;;;12.98;84.60
29733;BME280;16643;43.158;25.302;2023-04-09T07:45:56;98454.41;;;12.81;79.10
29733;BME280;16643;43.158;25.302;2023-04-09T07:48:22;98502.25;;;12.80;77.35
29733;BME280;16643;43.158;25.302;2023-04-09T07:50:47;98498.13;;;12.99;79.11
29733;BME280;16643;43.158;25.302;2023-04-09T07:53:13;98488.72;;;12.95;77.65
29733;BME280;16643;43.158;25.302;2023-04-09T07:55:39;98495.69;;;12.95;77.63
29733;BME280;16643;43.158;25.302;2023-04-09T07:58:05;98501.63;;;12.98;77.90
29733;BME280;16643;43.158;25.302;2023-04-09T08:00:31;98510.03;;;13.08;73.79
29733;BME280;16643;43.158;25.302;2023-04-09T08:02:57;98504.63;;;13.14;74.60
29733;BME280;16643;43.158;25.302;2023-04-09T08:05:23;98494.19;;;13.14;75.28
29733;BME280;16643;43.158;25.302;2023-04-09T08:07:50;98506.53;;;13.34;76.44
29733;BME280;16643;43.158;25.302;2023-04-09T08:10:16;98505.16;;;13.49;73.94
29733;BME280;16643;43.158;25.302;2023-04-09T08:12:42;98490.13;;;13.55;74.41
29733;BME280;16643;43.158;25.302;2023-04-09T08:15:08;98505.03;;;13.76;72.01
29733;BME280;16643;43.158;25.302;2023-04-09T08:17:34;98502.22;;;13.81;71.02
29733;BME280;16643;43.158;25.302;2023-04-09T08:20:04;98507.63;;;14.00;71.39
29733;BME280;16643;43.158;25.302;2023-04-09T08:22:30;98518.47;;;14.12;72.17
29733;BME280;16643;43.158;25.302;2023-04-09T08:24:56;98509.66;;;13.68;75.45
29733;BME280;16643;43.158;25.302;2023-04-09T08:27:25;98503.69;;;13.41;79.00
29733;BME280;16643;43.158;25.302;2023-04-09T08:29:51;98501.66;;;13.25;79.78
29733;BME280;16643;43.158;25.302;2023-04-09T08:32:17;98517.25;;;13.00;80.45
29733;BME280;16643;43.158;25.302;2023-04-09T08:34:42;98495.56;;;13.24;82.96
29733;BME280;16643;43.158;25.302;2023-04-09T08:37:08;98514.19;;;13.14;81.12
29733;BME280;16643;43.158;25.302;2023-04-09T08:39:34;98502.97;;;13.10;82.92
29733;BME280;16643;43.158;25.302;2023-04-09T08:42:00;98507.66;;;13.27;83.77
29733;BME280;16643;43.158;25.302;2023-04-09T08:44:27;98497.22;;;13.00;84.08
29733;BME280;16643;43.158;25.302;2023-04-09T08:46:53;98497.94;;;13.05;84.42
29733;BME280;16643;43.158;25.302;2023-04-09T08:49:19;98510.44;;;13.22;83.05
29733;BME280;16643;43.158;25.302;2023-04-09T08:51:46;98514.34;;;13.09;81.13
29733;BME280;16643;43.158;25.302;2023-04-09T08:54:16;98491.09;;;12.49;83.57
29733;BME280;16643;43.158;25.302;2023-04-09T08:56:45;98508.75;;;12.67;83.39
29733;BME280;16643;43.158;25.302;2023-04-09T08:59:14;98498.97;;;12.75;76.94
29733;BME280;16643;43.158;25.302;2023-04-09T09:01:40;98511.59;;;12.61;73.15
29733;BME280;16643;43.158;25.302;2023-04-09T09:04:07;98515.53;;;12.99;70.38
29733;BME280;16643;43.158;25.302;2023-04-09T09:06:35;98492.53;;;12.85;71.97
29733;BME280;16643;43.158;25.302;2023-04-09T09:09:06;98512.47;;;13.13;71.68
29733;BME280;16643;43.158;25.302;2023-04-09T09:11:36;98498.44;;;12.64;67.58
29733;BME280;16643;43.158;25.302;2023-04-09T09:14:04;98478.19;;;12.72;67.68
29733;BME280;16643;43.158;25.302;2023-04-09T09:16:32;98481.78;;;12.94;72.61
29733;BME280;16643;43.158;25.302;2023-04-09T09:18:59;98501.72;;;12.97;72.50
29733;BME280;16643;43.158;25.302;2023-04-09T09:21:26;98502.78;;;12.90;67.93
29733;BME280;16643;43.158;25.302;2023-04-09T09:23:53;98499.97;;;12.97;63.28
29733;BME280;16643;43.158;25.302;2023-04-09T09:26:29;98495.84;;;13.17;65.61
29733;BME280;16643;43.158;25.302;2023-04-09T09:28:56;98503.97;;;13.07;65.33
29733;BME280;16643;43.158;25.302;2023-04-09T09:31:25;98498.13;;;12.99;63.15
29733;BME280;16643;43.158;25.302;2023-04-09T09:33:51;98506.44;;;13.37;66.32
29733;BME280;16643;43.158;25.302;2023-04-09T09:36:30;98488.31;;;13.32;65.09
29733;BME280;16643;43.158;25.302;2023-04-09T09:38:57;98493.66;;;13.54;67.65
29733;BME280;16643;43.158;25.302;2023-04-09T09:41:24;98475.25;;;13.80;66.16
29733;BME280;16643;43.158;25.302;2023-04-09T09:43:50;98509.44;;;13.26;67.57
29733;BME280;16643;43.158;25.302;2023-04-09T09:46:16;98507.88;;;13.21;61.53
29733;BME280;16643;43.158;25.302;2023-04-09T09:48:43;98492.28;;;13.19;66.72
29733;BME280;16643;43.158;25.302;2023-04-09T09:51:12;98502.31;;;13.31;58.12
29733;BME280;16643;43.158;25.302;2023-04-09T09:53:40;98486.44;;;13.61;57.92
29733;BME280;16643;43.158;25.302;2023-04-09T09:56:13;98476.56;;;13.69;61.53
29733;BME280;16643;43.158;25.302;2023-04-09T09:58:44;98466.44;;;13.83;64.93
29733;BME280;16643;43.158;25.302;2023-04-09T10:01:13;98484.31;;;14.17;63.36
29733;BME280;16643;43.158;25.302;2023-04-09T10:03:42;98473.53;;;14.48;60.36
29733;BME280;16643;43.158;25.302;2023-04-09T10:06:09;98465.59;;;14.71;62.47
29733;BME280;16643;43.158;25.302;2023-04-09T10:08:36;98458.94;;;14.64;61.03
29733;BME280;16643;43.158;25.302;2023-04-09T10:11:06;98461.13;;;14.53;60.04
29733;BME280;16643;43.158;25.302;2023-04-09T10:13:38;98461.75;;;14.36;54.23
29733;BME280;16643;43.158;25.302;2023-04-09T10:16:05;98460.97;;;14.34;59.12
29733;BME280;16643;43.158;25.302;2023-04-09T10:18:32;98457.78;;;14.49;60.07
29733;BME280;16643;43.158;25.302;2023-04-09T10:23:41;98461.78;;;15.20;58.76
29733;BME280;16643;43.158;25.302;2023-04-09T10:26:08;98476.38;;;15.06;54.81
29733;BME280;16643;43.158;25.302;2023-04-09T10:28:36;98462.31;;;15.08;53.25
29733;BME280;16643;43.158;25.302;2023-04-09T10:31:04;98457.00;;;15.10;54.70
29733;BME280;16643;43.158;25.302;2023-04-09T10:33:30;98471.56;;;15.57;54.37
29733;BME280;16643;43.158;25.302;2023-04-09T10:36:02;98455.34;;;15.48;50.16
29733;BME280;16643;43.158;25.302;2023-04-09T10:38:35;98436.56;;;15.38;50.74
29733;BME280;16643;43.158;25.302;2023-04-09T10:41:14;98463.13;;;15.49;49.66
29733;BME280;16643;43.158;25.302;2023-04-09T10:43:41;98418.91;;;15.03;56.39
29733;BME280;16643;43.158;25.302;2023-04-09T10:46:25;98430.47;;;15.38;49.38
29733;BME280;16643;43.158;25.302;2023-04-09T10:49:11;98441.41;;;15.68;46.66
29733;BME280;16643;43.158;25.302;2023-04-09T10:51:40;98444.38;;;15.79;46.42
29733;BME280;16643;43.158;25.302;2023-04-09T10:59:37;98433.22;;;15.92;46.68
29733;BME280;16643;43.158;25.302;2023-04-09T11:02:07;98428.59;;;16.35;40.44
29733;BME280;16643;43.158;25.302;2023-04-09T11:07:05;98430.38;;;16.52;42.20
29733;BME280;16643;43.158;25.302;2023-04-09T11:09:35;98421.25;;;16.42;40.07
29733;BME280;16643;43.158;25.302;2023-04-09T11:12:04;98417.84;;;16.40;39.74
29733;BME280;16643;43.158;25.302;2023-04-09T11:14:29;98422.91;;;16.61;41.29
29733;BME280;16643;43.158;25.302;2023-04-09T11:16:56;98416.19;;;16.56;40.65
29733;BME280;16643;43.158;25.302;2023-04-09T11:19:21;98420.16;;;16.82;39.21
29733;BME280;16643;43.158;25.302;2023-04-09T11:21:47;98419.25;;;16.83;40.27
29733;BME280;16643;43.158;25.302;2023-04-09T11:24:13;98416.06;;;16.93;40.41
29733;BME280;16643;43.158;25.302;2023-04-09T11:26:40;98403.16;;;17.06;36.87
29733;BME280;16643;43.158;25.302;2023-04-09T11:29:06;98405.22;;;17.17;37.59
29733;BME280;16643;43.158;25.302;2023-04-09T11:31:35;98408.34;;;17.25;36.86
29733;BME280;16643;43.158;25.302;2023-04-09T11:34:02;98408.63;;;17.52;36.85
29733;BME280;16643;43.158;25.302;2023-04-09T11:36:27;98395.66;;;17.16;35.08
29733;BME280;16643;43.158;25.302;2023-04-09T11:38:56;98402.09;;;17.43;37.01
29733;BME280;16643;43.158;25.302;2023-04-09T11:41:37;98403.19;;;17.39;37.67
29733;BME280;16643;43.158;25.302;2023-04-09T11:44:07;98385.66;;;16.72;36.00
29733;BME280;16643;43.158;25.302;2023-04-09T11:46:37;98381.16;;;16.57;36.76
29733;BME280;16643;43.158;25.302;2023-04-09T11:49:03;98374.88;;;16.42;37.48
29733;BME280;16643;43.158;25.302;2023-04-09T11:51:29;98362.94;;;16.71;39.81
29733;BME280;16643;43.158;25.302;2023-04-09T11:54:06;98361.13;;;16.37;37.17
29733;BME280;16643;43.158;25.302;2023-04-09T11:56:34;98358.50;;;16.37;38.60
29733;BME280;16643;43.158;25.302;2023-04-09T11:59:01;98374.16;;;16.75;39.13
29733;BME280;16643;43.158;25.302;2023-04-09T12:01:33;98356.91;;;17.03;38.21
29733;BME280;16643;43.158;25.302;2023-04-09T12:04:00;98369.13;;;16.87;36.55
29733;BME280;16643;43.158;25.302;2023-04-09T12:06:26;98356.25;;;17.16;39.28
29733;BME280;16643;43.158;25.302;2023-04-09T12:08:57;98337.22;;;17.43;39.22
29733;BME280;16643;43.158;25.302;2023-04-09T12:11:30;98361.78;;;17.60;36.46
29733;BME280;16643;43.158;25.302;2023-04-09T12:14:02;98357.19;;;17.48;36.60
29733;BME280;16643;43.158;25.302;2023-04-09T12:16:34;98341.38;;;16.82;37.64
29733;BME280;16643;43.158;25.302;2023-04-09T12:19:10;98339.16;;;16.91;41.76
29733;BME280;16643;43.158;25.302;2023-04-09T12:21:50;98328.91;;;16.69;42.85
29733;BME280;16643;43.158;25.302;2023-04-09T12:24:19;98332.16;;;17.08;39.69
29733;BME280;16643;43.158;25.302;2023-04-09T12:26:46;98329.78;;;17.36;38.67
29733;BME280;16643;43.158;25.302;2023-04-09T12:29:13;98346.28;;;17.22;38.21
29733;BME280;16643;43.158;25.302;2023-04-09T12:31:39;98353.59;;;17.33;37.54
29733;BME280;16643;43.158;25.302;2023-04-09T12:34:04;98338.44;;;17.54;38.07
29733;BME280;16643;43.158;25.302;2023-04-09T12:36:30;98319.56;;;17.30;38.23
29733;BME280;16643;43.158;25.302;2023-04-09T12:38:56;98341.16;;;16.86;37.06
29733;BME280;16643;43.158;25.302;2023-04-09T12:41:22;98324.84;;;16.97;39.75
29733;BME280;16643;43.158;25.302;2023-04-09T12:43:47;98333.22;;;16.88;38.80
29733;BME280;16643;43.158;25.302;2023-04-09T12:46:13;98297.72;;;16.81;40.93
29733;BME280;16643;43.158;25.302;2023-04-09T12:48:39;98333.63;;;16.63;38.38
29733;BME280;16643;43.158;25.302;2023-04-09T12:51:05;98325.34;;;16.53;40.32
29733;BME280;16643;43.158;25.302;2023-04-09T12:53:31;98320.41;;;16.64;39.05
29733;BME280;16643;43.158;25.302;2023-04-09T12:55:57;98325.19;;;16.74;40.42
29733;BME280;16643;43.158;25.302;2023-04-09T12:58:23;98319.78;;;16.77;40.40
29733;BME280;16643;43.158;25.302;2023-04-09T13:00:49;98306.81;;;16.56;39.87
29733;BME280;16643;43.158;25.302;2023-04-09T13:03:15;98301.34;;;16.44;38.65
29733;BME280;16643;43.158;25.302;2023-04-09T13:05:41;98269.69;;;16.29;40.39